Petrobay — ECGC — position and weather

sailwx.info

Track history (hours):
 
Tides and Currents Weather Stations Pressure Air Temp Water Temp Dewpoint Dewpoint Depression Visibility Wind Speed Wind Dir Waves Ship Positions

Petrobay

Last reported at 2018-Feb-21 13:30 UTC. Time now 2018-Feb-21 13:30 UTC.
Position N 28°28' W 016°15'.

Length 66 m; draft 5 m.

Type: Tanker. MMSI: 224115180.

Date/timePositionNaut miles runAvg speedWind from/ knotsBaromVisibWave heightAir tempDewpointWater temp
2018-Feb-21 13:30N 28°28' W 016°15'0 0.0
2018-Feb-21 13:00N 28°28' W 016°15'0 0.0
2018-Feb-21 12:29N 28°28' W 016°15'0 0.0
2018-Feb-21 11:59N 28°28' W 016°15'0 0.0
2018-Feb-21 11:29N 28°28' W 016°15'1 2.5
2018-Feb-21 11:01N 28°29' W 016°14'1 1.1
2018-Feb-21 10:30N 28°29' W 016°13'0 0.0
2018-Feb-21 10:01N 28°29' W 016°13'0 0.0
2018-Feb-21 09:30N 28°29' W 016°13'0 0.0
2018-Feb-21 09:00N 28°29' W 016°13'0 0.0
2018-Feb-21 08:28N 28°29' W 016°13'0 0.0
2018-Feb-21 07:58N 28°29' W 016°13'0 0.0
2018-Feb-21 07:28N 28°29' W 016°13'1 1.1
2018-Feb-21 07:00N 28°29' W 016°14'0 0.0
2018-Feb-21 06:30N 28°29' W 016°14'0 0.0
2018-Feb-21 06:00N 28°29' W 016°14'0 0.0
2018-Feb-21 05:27N 28°29' W 016°14'0 0.0
2018-Feb-21 04:57N 28°29' W 016°14'0 0.0
2018-Feb-21 04:27N 28°29' W 016°14'0 0.0
2018-Feb-21 03:57N 28°29' W 016°14'0 0.0
2018-Feb-21 03:27N 28°29' W 016°14'0 0.0
2018-Feb-21 02:57N 28°29' W 016°14'0 0.0
2018-Feb-21 02:27N 28°29' W 016°14'0 0.0
2018-Feb-21 01:57N 28°29' W 016°14'0 0.0
2018-Feb-21 01:27N 28°29' W 016°14'0 0.0
2018-Feb-21 01:00N 28°29' W 016°14'0 0.0
2018-Feb-21 00:27N 28°29' W 016°14'0 0.0
2018-Feb-20 23:57N 28°29' W 016°14'0 0.0
2018-Feb-20 23:27N 28°29' W 016°14'0 0.0
2018-Feb-20 22:57N 28°29' W 016°14'0 0.0
2018-Feb-20 22:27N 28°29' W 016°14'0 0.0
2018-Feb-20 21:57N 28°29' W 016°14'0 0.0
2018-Feb-20 21:30N 28°29' W 016°14'0 0.0
2018-Feb-20 21:00N 28°29' W 016°14'2 3.5
2018-Feb-20 20:30N 28°30' W 016°12'3 4.8
2018-Feb-20 19:58N 28°30' W 016°09'0 0.1
2018-Feb-20 19:28N 28°30' W 016°09'0 0.0
2018-Feb-20 18:58N 28°30' W 016°09'0 0.0
2018-Feb-20 18:28N 28°30' W 016°09'0 0.1
2018-Feb-20 17:58N 28°30' W 016°09'0 0.1
2018-Feb-20 17:28N 28°30' W 016°09'0 0.0
2018-Feb-20 16:58N 28°30' W 016°09'0 0.0
2018-Feb-20 16:28N 28°30' W 016°09'0 0.0
2018-Feb-20 15:55N 28°30' W 016°09'1 1.4
2018-Feb-20 15:30N 28°30' W 016°10'3 6.1
2018-Feb-20 15:00N 28°29' W 016°13'0 0.6
2018-Feb-20 14:30N 28°29' W 016°13'0 0.0
2018-Feb-20 14:00N 28°29' W 016°13'2 0.1
2018-Feb-19 09:22N 28°28' W 016°15'0 0.1
2018-Feb-19 08:58N 28°28' W 016°15'1 2.4
2018-Feb-19 08:30N 28°29' W 016°14'0 0.2
2018-Feb-19 07:59N 28°29' W 016°14'0 0.0
2018-Feb-19 07:29N 28°29' W 016°14'0 0.0
2018-Feb-19 06:59N 28°29' W 016°14'0 0.0
2018-Feb-19 06:29N 28°29' W 016°14'0 0.0
2018-Feb-19 05:59N 28°29' W 016°14'0 0.0
2018-Feb-19 05:26N 28°29' W 016°14'0 0.0
2018-Feb-19 04:59N 28°29' W 016°14'0 0.0
2018-Feb-19 04:26N 28°29' W 016°14'0 0.0
2018-Feb-19 03:56N 28°29' W 016°14'0 0.0
2018-Feb-19 03:29N 28°29' W 016°14'0 0.0
2018-Feb-19 02:56N 28°29' W 016°14'0 0.0
2018-Feb-19 02:29N 28°29' W 016°14'0 0.0
2018-Feb-19 01:56N 28°29' W 016°14'0 0.0
2018-Feb-19 01:29N 28°29' W 016°14'0 0.0
2018-Feb-19 00:59N 28°29' W 016°14'0 0.0
2018-Feb-19 00:26N 28°29' W 016°14'0 0.0
2018-Feb-18 23:56N 28°29' W 016°14'0 0.0
2018-Feb-18 23:26N 28°29' W 016°14'0 0.0
2018-Feb-18 22:59N 28°29' W 016°14'0 0.0
2018-Feb-18 22:26N 28°29' W 016°14'0 0.0
2018-Feb-18 21:59N 28°29' W 016°14'0 0.0
2018-Feb-18 21:26N 28°29' W 016°14'0 0.0
2018-Feb-18 20:59N 28°29' W 016°14'0 0.0
2018-Feb-18 20:29N 28°29' W 016°14'0 0.0
2018-Feb-18 19:59N 28°29' W 016°14'0 0.2
2018-Feb-18 19:30N 28°29' W 016°14'2 3.6
2018-Feb-18 18:59N 28°29' W 016°12'0 0.0
2018-Feb-18 18:29N 28°29' W 016°12'0 0.1
2018-Feb-18 17:59N 28°29' W 016°12'0 0.0
2018-Feb-18 17:29N 28°29' W 016°12'0 0.0
2018-Feb-18 16:59N 28°29' W 016°12'0 0.0
2018-Feb-18 16:29N 28°29' W 016°12'0 0.0
2018-Feb-18 15:59N 28°29' W 016°12'0 0.0
2018-Feb-18 15:29N 28°29' W 016°12'0 0.1
2018-Feb-18 14:59N 28°29' W 016°12'0 0.0
2018-Feb-18 14:29N 28°29' W 016°12'0 0.0
2018-Feb-18 13:59N 28°29' W 016°12'0 0.1
2018-Feb-18 13:29N 28°29' W 016°12'0 0.0
2018-Feb-18 12:59N 28°29' W 016°12'0 0.0
2018-Feb-18 12:29N 28°29' W 016°12'0 0.0
2018-Feb-18 11:59N 28°29' W 016°12'0 0.0
2018-Feb-18 11:29N 28°29' W 016°12'0 0.0
2018-Feb-18 10:59N 28°29' W 016°12'0 0.0
2018-Feb-18 10:26N 28°29' W 016°12'0 0.0
2018-Feb-18 09:59N 28°29' W 016°12'0 0.1
2018-Feb-18 09:29N 28°29' W 016°12'2 3.7
2018-Feb-18 09:01N 28°29' W 016°14'0 0.4
2018-Feb-18 08:30N 28°29' W 016°14'0 0.0
2018-Feb-18 08:00N 28°29' W 016°14'0 0.0
2018-Feb-18 07:30N 28°29' W 016°14'0 0.0
2018-Feb-18 07:00N 28°29' W 016°14'0 0.0
2018-Feb-18 06:30N 28°29' W 016°14'0 0.0
2018-Feb-18 06:00N 28°29' W 016°14'0 0.0
2018-Feb-18 05:30N 28°29' W 016°14'0 0.0
2018-Feb-18 05:00N 28°29' W 016°14'0 0.0
2018-Feb-18 04:30N 28°29' W 016°14'0 0.0
2018-Feb-18 04:00N 28°29' W 016°14'0 0.0
2018-Feb-18 03:30N 28°29' W 016°14'0 0.0
2018-Feb-18 03:00N 28°29' W 016°14'0 0.0
2018-Feb-18 02:30N 28°29' W 016°14'0 0.0
2018-Feb-18 02:00N 28°29' W 016°14'0 0.0
2018-Feb-18 01:30N 28°29' W 016°14'0 0.0
2018-Feb-18 01:00N 28°29' W 016°14'0 0.0
2018-Feb-18 00:30N 28°29' W 016°14'0 0.0
2018-Feb-18 00:00N 28°29' W 016°14'0 0.0
2018-Feb-17 23:30N 28°29' W 016°14'0 0.0
2018-Feb-17 23:00N 28°29' W 016°14'0 0.0
2018-Feb-17 22:30N 28°29' W 016°14'0 0.0
2018-Feb-17 22:00N 28°29' W 016°14'0 0.0
2018-Feb-17 21:30N 28°29' W 016°14'0 0.0
2018-Feb-17 21:00N 28°29' W 016°14'0 0.0
2018-Feb-17 20:30N 28°29' W 016°14'0 0.0
2018-Feb-17 20:00N 28°29' W 016°14'0 0.0
2018-Feb-17 19:30N 28°29' W 016°14'0 0.0
2018-Feb-17 19:00N 28°29' W 016°14'0 0.3
2018-Feb-17 18:30N 28°29' W 016°14'1 1.7
2018-Feb-17 18:00N 28°28' W 016°14'0 0.0
2018-Feb-17 17:30N 28°28' W 016°14'0 0.0
2018-Feb-17 17:00N 28°28' W 016°14'0 0.0
2018-Feb-17 16:30N 28°28' W 016°14'0 0.0
2018-Feb-17 16:00N 28°28' W 016°14'0 0.0
2018-Feb-17 15:30N 28°28' W 016°14'0 0.0
2018-Feb-17 15:00N 28°28' W 016°14'0 0.0
2018-Feb-17 14:30N 28°28' W 016°14'0 0.0
2018-Feb-17 14:00N 28°28' W 016°14'0 0.0
2018-Feb-17 13:30N 28°28' W 016°15'0 0.2
2018-Feb-17 13:00N 28°28' W 016°14'0 0.1
2018-Feb-17 12:30N 28°28' W 016°14'0 0.0
2018-Feb-17 12:00N 28°28' W 016°14'0 0.0
2018-Feb-17 11:30N 28°28' W 016°14'0 0.0
2018-Feb-17 11:00N 28°28' W 016°14'0 0.0
2018-Feb-17 10:30N 28°28' W 016°14'0 0.0
2018-Feb-17 10:00N 28°28' W 016°14'0 0.0
2018-Feb-17 09:30N 28°28' W 016°14'0 0.0
2018-Feb-17 09:00N 28°28' W 016°14'0 0.0
2018-Feb-17 08:30N 28°28' W 016°14'0 0.3
2018-Feb-17 08:00N 28°29' W 016°14'0 0.1
2018-Feb-17 07:30N 28°29' W 016°14'0 0.0
2018-Feb-17 07:00N 28°29' W 016°14'0 0.0
2018-Feb-17 06:30N 28°29' W 016°14'0 0.0
2018-Feb-17 06:00N 28°29' W 016°14'0 0.0
2018-Feb-17 05:30N 28°29' W 016°14'0 0.0
2018-Feb-17 05:00N 28°29' W 016°14'0 0.0
2018-Feb-17 04:30N 28°29' W 016°14'0 0.0
2018-Feb-17 04:00N 28°29' W 016°14'0 0.0
2018-Feb-17 03:30N 28°29' W 016°14'0 0.0
2018-Feb-17 03:00N 28°29' W 016°14'0 0.0
2018-Feb-17 02:30N 28°29' W 016°14'0 0.0
2018-Feb-17 02:00N 28°29' W 016°14'0 0.0
2018-Feb-17 01:30N 28°29' W 016°14'0 0.0
2018-Feb-17 01:00N 28°29' W 016°14'0 0.0
2018-Feb-17 00:30N 28°29' W 016°14'0 0.0
2018-Feb-17 00:00N 28°29' W 016°14'0 0.0
2018-Feb-16 23:30N 28°29' W 016°14'0 0.0
2018-Feb-16 23:00N 28°29' W 016°14'0 0.0
2018-Feb-16 22:30N 28°29' W 016°14'0 0.0
2018-Feb-16 22:00N 28°29' W 016°14'0 0.0
2018-Feb-16 21:30N 28°29' W 016°14'0 0.0
2018-Feb-16 21:00N 28°29' W 016°14'0 0.0
2018-Feb-16 20:30N 28°29' W 016°14'0 0.0
2018-Feb-16 20:00N 28°29' W 016°14'0 0.0
2018-Feb-16 19:29N 28°29' W 016°14'0 1.0
2018-Feb-16 19:00N 28°29' W 016°14'0 0.4
2018-Feb-16 18:28N 28°29' W 016°14'0 0.0
2018-Feb-16 17:58N 28°29' W 016°14'0 0.0
2018-Feb-16 17:28N 28°29' W 016°14'0 0.0
2018-Feb-16 16:58N 28°29' W 016°14'0 0.0
2018-Feb-16 16:25N 28°29' W 016°14'0 0.0
2018-Feb-16 15:58N 28°29' W 016°14'1 2.5
2018-Feb-16 15:28N 28°28' W 016°15'0 0.0
2018-Feb-16 14:58N 28°28' W 016°15'0 0.0
2018-Feb-16 14:28N 28°28' W 016°15'0 0.0
2018-Feb-16 13:58N 28°28' W 016°15'0 0.0
2018-Feb-16 13:28N 28°28' W 016°15'0 0.0
2018-Feb-16 12:58N 28°28' W 016°15'0 0.0
2018-Feb-16 12:28N 28°28' W 016°15'0 0.0
2018-Feb-16 11:58N 28°28' W 016°15'0 0.0
2018-Feb-16 11:28N 28°28' W 016°15'0 0.0
2018-Feb-16 10:58N 28°28' W 016°15'0 0.7
2018-Feb-16 10:30N 28°28' W 016°15'1 1.8
2018-Feb-16 09:59N 28°29' W 016°14'0 0.0
2018-Feb-16 09:29N 28°29' W 016°14'0 0.0
2018-Feb-16 08:59N 28°29' W 016°14'0 0.0
2018-Feb-16 08:29N 28°29' W 016°14'0 0.0
2018-Feb-16 07:59N 28°29' W 016°14'0 0.0
2018-Feb-16 07:29N 28°29' W 016°14'0 0.0
2018-Feb-16 06:59N 28°29' W 016°14'0 0.0
2018-Feb-16 06:29N 28°29' W 016°14'0 0.0
2018-Feb-16 05:59N 28°29' W 016°14'0 0.0
2018-Feb-16 05:26N 28°29' W 016°14'0 0.0
2018-Feb-16 04:53N 28°29' W 016°14'0 0.0
2018-Feb-16 04:29N 28°29' W 016°14'0 0.0
2018-Feb-16 03:56N 28°29' W 016°14'1 2.8
2018-Feb-16 03:29N 28°28' W 016°15'0 0.0
2018-Feb-16 02:59N 28°28' W 016°15'0 0.0
2018-Feb-16 02:29N 28°28' W 016°15'0 0.0
2018-Feb-16 01:59N 28°28' W 016°15'0 0.0
2018-Feb-16 01:29N 28°28' W 016°15'0 0.0
2018-Feb-16 00:56N 28°28' W 016°15'0 0.0
2018-Feb-16 00:29N 28°28' W 016°15'0 0.0
2018-Feb-15 23:56N 28°28' W 016°15'1 1.7
2018-Feb-15 23:30N 28°29' W 016°14'1 2.2
2018-Feb-15 23:00N 28°29' W 016°13'0 0.0
2018-Feb-15 22:30N 28°29' W 016°13'0 0.0
2018-Feb-15 22:00N 28°29' W 016°13'0 0.0
2018-Feb-15 21:30N 28°29' W 016°13'0 0.0
2018-Feb-15 21:00N 28°29' W 016°13'0 0.0
2018-Feb-15 20:30N 28°29' W 016°13'0 0.0
2018-Feb-15 20:00N 28°29' W 016°13'0 0.0
2018-Feb-15 19:30N 28°29' W 016°13'0 0.0
2018-Feb-15 19:00N 28°29' W 016°13'0 0.0
2018-Feb-15 18:30N 28°29' W 016°13'0 0.0
2018-Feb-15 18:00N 28°29' W 016°13'0 0.0
2018-Feb-15 17:30N 28°29' W 016°13'0 0.0
2018-Feb-15 17:00N 28°29' W 016°13'0 0.0
2018-Feb-15 16:30N 28°29' W 016°13'0 0.0
2018-Feb-15 16:00N 28°29' W 016°13'0 0.0
2018-Feb-15 15:30N 28°29' W 016°13'1 1.0
2018-Feb-15 14:58N 28°29' W 016°14'0 0.0
2018-Feb-15 14:28N 28°29' W 016°14'0 0.0
2018-Feb-15 13:58N 28°29' W 016°14'0 0.0
2018-Feb-15 13:28N 28°29' W 016°14'0 0.0
2018-Feb-15 12:58N 28°29' W 016°14'0 0.0
2018-Feb-15 12:31N 28°29' W 016°14'0 0.0
2018-Feb-15 12:01N 28°29' W 016°14'0 0.0
2018-Feb-15 11:30N 28°29' W 016°14'0 0.0
2018-Feb-15 11:00N 28°29' W 016°14'0 0.0
2018-Feb-15 10:30N 28°29' W 016°14'0 0.0
2018-Feb-15 10:00N 28°29' W 016°14'0 0.0
2018-Feb-15 09:30N 28°29' W 016°14'0 0.0
2018-Feb-15 09:00N 28°29' W 016°14'0 0.0
2018-Feb-15 08:30N 28°29' W 016°14'0 0.0
2018-Feb-15 08:00N 28°29' W 016°14'0 0.0
2018-Feb-15 07:30N 28°29' W 016°14'0 0.0
2018-Feb-15 07:00N 28°29' W 016°14'0 0.0
2018-Feb-15 06:24N 28°29' W 016°14'0 0.0
2018-Feb-15 06:00N 28°29' W 016°14'0 0.0
2018-Feb-15 05:30N 28°29' W 016°14'0 0.0
2018-Feb-15 05:00N 28°29' W 016°14'0 0.0
2018-Feb-15 04:27N 28°29' W 016°14'0 0.0
2018-Feb-15 04:00N 28°29' W 016°14'0 0.0
2018-Feb-15 03:30N 28°29' W 016°14'0 0.0
2018-Feb-15 03:00N 28°29' W 016°14'0 0.0
2018-Feb-15 02:30N 28°29' W 016°14'0 0.0
2018-Feb-15 02:00N 28°29' W 016°14'0 0.0
2018-Feb-15 01:30N 28°29' W 016°14'0 0.0
2018-Feb-15 01:00N 28°29' W 016°14'0 0.0
2018-Feb-15 00:30N 28°29' W 016°14'0 0.0
2018-Feb-15 00:00N 28°29' W 016°14'0 0.0
2018-Feb-14 23:30N 28°29' W 016°14'0 0.0
2018-Feb-14 23:00N 28°29' W 016°14'0 0.0
2018-Feb-14 22:30N 28°29' W 016°14'0 0.0
2018-Feb-14 22:00N 28°29' W 016°14'0 0.0
2018-Feb-14 21:30N 28°29' W 016°14'0 0.0
2018-Feb-14 21:00N 28°29' W 016°14'1 1.3
2018-Feb-14 20:29N 28°29' W 016°13'0 0.2
2018-Feb-14 19:59N 28°29' W 016°13'0 0.0
2018-Feb-14 19:29N 28°29' W 016°13'0 0.0
2018-Feb-14 18:59N 28°29' W 016°13'0 0.0
2018-Feb-14 18:29N 28°29' W 016°13'0 0.0
2018-Feb-14 17:59N 28°29' W 016°13'0 0.0
2018-Feb-14 17:29N 28°29' W 016°13'1 1.3
2018-Feb-14 16:59N 28°29' W 016°14'0 0.0
2018-Feb-14 16:29N 28°29' W 016°14'0 0.0
2018-Feb-14 15:59N 28°29' W 016°14'0 0.0
2018-Feb-14 15:29N 28°29' W 016°14'0 0.0
2018-Feb-14 14:59N 28°29' W 016°14'0 0.0
2018-Feb-14 14:29N 28°29' W 016°14'0 0.0
2018-Feb-14 13:59N 28°29' W 016°14'0 0.0
2018-Feb-14 13:29N 28°29' W 016°14'0 0.1
2018-Feb-14 12:59N 28°29' W 016°14'0 0.2
2018-Feb-14 12:29N 28°29' W 016°14'0 0.0
2018-Feb-14 11:59N 28°29' W 016°14'0 0.0
2018-Feb-14 11:29N 28°29' W 016°14'0 0.0
2018-Feb-14 10:59N 28°29' W 016°14'0 0.0
2018-Feb-14 10:29N 28°29' W 016°14'0 0.0
2018-Feb-14 09:59N 28°29' W 016°14'0 0.0
2018-Feb-14 09:29N 28°29' W 016°14'0 0.9
2018-Feb-14 08:59N 28°29' W 016°13'0 0.0
2018-Feb-14 08:29N 28°29' W 016°13'0 0.0
2018-Feb-14 07:59N 28°29' W 016°13'0 0.0
2018-Feb-14 07:29N 28°29' W 016°13'0 0.0
2018-Feb-14 06:59N 28°29' W 016°13'0 0.0
2018-Feb-14 06:29N 28°29' W 016°13'0 0.0
2018-Feb-14 05:59N 28°29' W 016°13'0 0.0
2018-Feb-14 05:29N 28°29' W 016°13'0 0.0
2018-Feb-14 04:59N 28°29' W 016°13'0 0.0
2018-Feb-14 04:29N 28°29' W 016°13'0 0.0
2018-Feb-14 03:59N 28°29' W 016°13'0 0.0
2018-Feb-14 03:29N 28°29' W 016°13'0 0.0
2018-Feb-14 02:53N 28°29' W 016°13'0 0.0
2018-Feb-14 02:29N 28°29' W 016°13'0 0.2
2018-Feb-14 01:53N 28°29' W 016°13'0 0.0
2018-Feb-14 01:29N 28°29' W 016°13'0 0.0
2018-Feb-14 00:59N 28°29' W 016°13'0 0.0
2018-Feb-14 00:29N 28°29' W 016°13'0 0.0
2018-Feb-13 23:59N 28°29' W 016°13'0 0.0
2018-Feb-13 23:29N 28°29' W 016°13'0 0.0
2018-Feb-13 22:59N 28°29' W 016°13'0 0.0
2018-Feb-13 22:29N 28°29' W 016°13'0 0.0
2018-Feb-13 21:59N 28°29' W 016°13'0 0.3
2018-Feb-13 21:29N 28°29' W 016°13'0 0.0
2018-Feb-13 20:59N 28°29' W 016°13'0 0.0
2018-Feb-13 20:29N 28°29' W 016°13'0 0.0
2018-Feb-13 19:59N 28°29' W 016°13'0 0.0
2018-Feb-13 19:29N 28°29' W 016°13'0 0.0
2018-Feb-13 18:59N 28°29' W 016°13'0 0.0
2018-Feb-13 18:29N 28°29' W 016°13'0 0.0
2018-Feb-13 17:59N 28°29' W 016°13'0 0.0
2018-Feb-13 17:29N 28°29' W 016°13'0 0.0
2018-Feb-13 16:59N 28°29' W 016°13'1 1.1
2018-Feb-13 16:30N 28°29' W 016°14'0 0.0
2018-Feb-13 16:00N 28°29' W 016°14'0 0.0
2018-Feb-13 15:30N 28°29' W 016°14'0 0.0
2018-Feb-13 14:57N 28°29' W 016°14'0 0.4
2018-Feb-13 14:29N 28°29' W 016°14'0 0.0
2018-Feb-13 13:59N 28°29' W 016°14'0 0.0
2018-Feb-13 13:29N 28°29' W 016°14'0 0.0
2018-Feb-13 12:59N 28°29' W 016°14'0 0.0
2018-Feb-13 12:29N 28°29' W 016°14'0 0.0
2018-Feb-13 11:59N 28°29' W 016°14'0 0.1
2018-Feb-13 11:29N 28°29' W 016°14'0 0.3
2018-Feb-13 10:59N 28°29' W 016°14'0 0.0
2018-Feb-13 10:29N 28°29' W 016°14'0 0.0
2018-Feb-13 09:59N 28°29' W 016°14'0 0.0
2018-Feb-13 09:29N 28°29' W 016°14'0 0.0
2018-Feb-13 08:59N 28°29' W 016°14'0 0.0
2018-Feb-13 08:29N 28°29' W 016°14'0 0.0
2018-Feb-13 07:59N 28°29' W 016°14'0 0.0
2018-Feb-13 07:29N 28°29' W 016°14'0 0.6
2018-Feb-13 07:00N 28°29' W 016°14'1 2.3
2018-Feb-13 06:25N 28°29' W 016°12'0 0.6
2018-Feb-13 05:58N 28°29' W 016°12'0 0.0
2018-Feb-13 05:25N 28°29' W 016°12'0 0.0
2018-Feb-13 04:58N 28°29' W 016°12'0 0.0
2018-Feb-13 04:25N 28°29' W 016°12'0 0.0
2018-Feb-13 03:58N 28°29' W 016°12'0 0.0
2018-Feb-13 03:25N 28°29' W 016°12'0 0.0
2018-Feb-13 02:58N 28°29' W 016°12'0 0.0
2018-Feb-13 02:28N 28°29' W 016°12'0 0.0
2018-Feb-13 01:58N 28°29' W 016°12'0 0.0
2018-Feb-13 01:28N 28°29' W 016°12'0 0.0
2018-Feb-13 00:55N 28°29' W 016°12'0 0.0
2018-Feb-13 00:28N 28°29' W 016°12'0 0.0
2018-Feb-12 23:58N 28°29' W 016°12'0 0.0
2018-Feb-12 23:28N 28°29' W 016°12'0 0.0
2018-Feb-12 22:58N 28°29' W 016°12'0 0.0
2018-Feb-12 22:28N 28°29' W 016°12'0 0.1
2018-Feb-12 21:58N 28°29' W 016°12'0 0.1
2018-Feb-12 21:28N 28°29' W 016°12'1 1.4
2018-Feb-12 21:00N 28°29' W 016°12'1 1.4
2018-Feb-12 20:30N 28°29' W 016°13'0 0.0
2018-Feb-12 20:00N 28°29' W 016°13'0 0.0
2018-Feb-12 19:30N 28°29' W 016°13'0 0.0
2018-Feb-12 19:00N 28°29' W 016°13'0 0.0
2018-Feb-12 18:30N 28°29' W 016°13'0 0.0
2018-Feb-12 18:00N 28°29' W 016°13'0 0.0
2018-Feb-12 17:30N 28°29' W 016°13'0 0.0
2018-Feb-12 17:00N 28°29' W 016°13'0 0.0
2018-Feb-12 16:30N 28°29' W 016°13'0 0.0
2018-Feb-12 16:00N 28°29' W 016°13'0 0.0
2018-Feb-12 15:18N 28°29' W 016°13'0 0.0
2018-Feb-12 15:00N 28°29' W 016°13'0 0.0
2018-Feb-12 14:30N 28°29' W 016°13'0 0.0
2018-Feb-12 14:00N 28°29' W 016°13'0 0.0
2018-Feb-12 13:30N 28°29' W 016°13'0 1.0
2018-Feb-12 12:58N 28°29' W 016°14'0 0.0
2018-Feb-12 12:28N 28°29' W 016°14'0 0.0
2018-Feb-12 11:58N 28°29' W 016°14'0 0.0
2018-Feb-12 11:28N 28°29' W 016°14'0 0.0
2018-Feb-12 10:58N 28°29' W 016°14'0 0.0
2018-Feb-12 10:28N 28°29' W 016°14'0 1.0
2018-Feb-12 10:00N 28°29' W 016°14'1 1.6
2018-Feb-12 09:30N 28°28' W 016°15'0 0.0
2018-Feb-12 09:00N 28°28' W 016°15'0 0.0
2018-Feb-12 08:30N 28°28' W 016°15'0 0.0
2018-Feb-12 08:00N 28°28' W 016°15'0 0.0
2018-Feb-12 07:30N 28°28' W 016°15'0 0.0
2018-Feb-12 07:00N 28°28' W 016°15'0 0.0
2018-Feb-12 06:30N 28°28' W 016°15'0 0.0
2018-Feb-12 06:00N 28°28' W 016°15'0 0.0
2018-Feb-12 05:30N 28°28' W 016°15'0 0.1
2018-Feb-12 05:00N 28°28' W 016°15'0 0.6
2018-Feb-12 04:30N 28°28' W 016°14'0 0.0
2018-Feb-12 04:00N 28°28' W 016°14'0 0.0
2018-Feb-12 03:30N 28°28' W 016°14'0 0.0
2018-Feb-12 03:00N 28°28' W 016°14'0 0.0
2018-Feb-12 02:30N 28°28' W 016°14'0 0.0
2018-Feb-12 02:00N 28°28' W 016°14'0 0.0
2018-Feb-12 01:30N 28°28' W 016°14'0 0.0
2018-Feb-12 01:00N 28°28' W 016°14'0 0.0
2018-Feb-12 00:30N 28°28' W 016°14'0 0.0
2018-Feb-12 00:00N 28°28' W 016°14'0 0.0
2018-Feb-11 23:30N 28°28' W 016°14'0 0.0
2018-Feb-11 23:00N 28°28' W 016°14'0 0.0
2018-Feb-11 22:30N 28°28' W 016°14'0 0.0
2018-Feb-11 22:00N 28°28' W 016°14'0 0.0
2018-Feb-11 21:30N 28°28' W 016°14'0 0.0
2018-Feb-11 21:00N 28°28' W 016°14'0 0.0
2018-Feb-11 20:30N 28°28' W 016°14'0 0.0
2018-Feb-11 20:00N 28°28' W 016°14'0 0.0
2018-Feb-11 19:30N 28°28' W 016°14'0 0.0
2018-Feb-11 19:00N 28°28' W 016°14'1 3.0
2018-Feb-11 18:31N 28°29' W 016°13'0 0.8
2018-Feb-11 17:59N 28°29' W 016°12'0 0.0
2018-Feb-11 17:29N 28°29' W 016°12'0 0.1
2018-Feb-11 16:59N 28°29' W 016°12'0 0.1
2018-Feb-11 16:29N 28°29' W 016°12'0 0.0
2018-Feb-11 15:59N 28°29' W 016°12'0 0.1
2018-Feb-11 15:29N 28°29' W 016°12'0 0.0
2018-Feb-11 14:59N 28°29' W 016°12'0 0.1
2018-Feb-11 14:29N 28°29' W 016°13'1 2.1
2018-Feb-11 14:00N 28°29' W 016°14'0 0.1
2018-Feb-11 13:30N 28°29' W 016°14'0 0.0
2018-Feb-11 13:00N 28°29' W 016°14'  
Track history (hours):
 
Tides and Currents Weather Stations Pressure Air Temp Water Temp Dewpoint Dewpoint Depression Visibility Wind Speed Wind Dir Waves Ship Positions

Petrobay

Last reported at 2018-Feb-21 13:30 UTC. Time now 2018-Feb-21 13:30 UTC.
Position N 28°28' W 016°15'.

Length 66 m; draft 5 m.

Type: Tanker. MMSI: 224115180.

Date/timePositionNaut miles runAvg speedWind from/ knotsBaromVisibWave heightAir tempDewpointWater temp
2018-Feb-21 13:30N 28°28' W 016°15'0 0.0
2018-Feb-21 13:00N 28°28' W 016°15'0 0.0
2018-Feb-21 12:29N 28°28' W 016°15'0 0.0
2018-Feb-21 11:59N 28°28' W 016°15'0 0.0
2018-Feb-21 11:29N 28°28' W 016°15'1 2.5
2018-Feb-21 11:01N 28°29' W 016°14'1 1.1
2018-Feb-21 10:30N 28°29' W 016°13'0 0.0
2018-Feb-21 10:01N 28°29' W 016°13'0 0.0
2018-Feb-21 09:30N 28°29' W 016°13'0 0.0
2018-Feb-21 09:00N 28°29' W 016°13'0 0.0
2018-Feb-21 08:28N 28°29' W 016°13'0 0.0
2018-Feb-21 07:58N 28°29' W 016°13'0 0.0
2018-Feb-21 07:28N 28°29' W 016°13'1 1.1
2018-Feb-21 07:00N 28°29' W 016°14'0 0.0
2018-Feb-21 06:30N 28°29' W 016°14'0 0.0
2018-Feb-21 06:00N 28°29' W 016°14'0 0.0
2018-Feb-21 05:27N 28°29' W 016°14'0 0.0
2018-Feb-21 04:57N 28°29' W 016°14'0 0.0
2018-Feb-21 04:27N 28°29' W 016°14'0 0.0
2018-Feb-21 03:57N 28°29' W 016°14'0 0.0
2018-Feb-21 03:27N 28°29' W 016°14'0 0.0
2018-Feb-21 02:57N 28°29' W 016°14'0 0.0
2018-Feb-21 02:27N 28°29' W 016°14'0 0.0
2018-Feb-21 01:57N 28°29' W 016°14'0 0.0
2018-Feb-21 01:27N 28°29' W 016°14'0 0.0
2018-Feb-21 01:00N 28°29' W 016°14'0 0.0
2018-Feb-21 00:27N 28°29' W 016°14'0 0.0
2018-Feb-20 23:57N 28°29' W 016°14'0 0.0
2018-Feb-20 23:27N 28°29' W 016°14'0 0.0
2018-Feb-20 22:57N 28°29' W 016°14'0 0.0
2018-Feb-20 22:27N 28°29' W 016°14'0 0.0
2018-Feb-20 21:57N 28°29' W 016°14'0 0.0
2018-Feb-20 21:30N 28°29' W 016°14'0 0.0
2018-Feb-20 21:00N 28°29' W 016°14'2 3.5
2018-Feb-20 20:30N 28°30' W 016°12'3 4.8
2018-Feb-20 19:58N 28°30' W 016°09'0 0.1
2018-Feb-20 19:28N 28°30' W 016°09'0 0.0
2018-Feb-20 18:58N 28°30' W 016°09'0 0.0
2018-Feb-20 18:28N 28°30' W 016°09'0 0.1
2018-Feb-20 17:58N 28°30' W 016°09'0 0.1
2018-Feb-20 17:28N 28°30' W 016°09'0 0.0
2018-Feb-20 16:58N 28°30' W 016°09'0 0.0
2018-Feb-20 16:28N 28°30' W 016°09'0 0.0
2018-Feb-20 15:55N 28°30' W 016°09'1 1.4
2018-Feb-20 15:30N 28°30' W 016°10'3 6.1
2018-Feb-20 15:00N 28°29' W 016°13'0 0.6
2018-Feb-20 14:30N 28°29' W 016°13'0 0.0
2018-Feb-20 14:00N 28°29' W 016°13'2 0.1
2018-Feb-19 09:22N 28°28' W 016°15'0 0.1
2018-Feb-19 08:58N 28°28' W 016°15'1 2.4
2018-Feb-19 08:30N 28°29' W 016°14'0 0.2
2018-Feb-19 07:59N 28°29' W 016°14'0 0.0
2018-Feb-19 07:29N 28°29' W 016°14'0 0.0
2018-Feb-19 06:59N 28°29' W 016°14'0 0.0
2018-Feb-19 06:29N 28°29' W 016°14'0 0.0
2018-Feb-19 05:59N 28°29' W 016°14'0 0.0
2018-Feb-19 05:26N 28°29' W 016°14'0 0.0
2018-Feb-19 04:59N 28°29' W 016°14'0 0.0
2018-Feb-19 04:26N 28°29' W 016°14'0 0.0
2018-Feb-19 03:56N 28°29' W 016°14'0 0.0
2018-Feb-19 03:29N 28°29' W 016°14'0 0.0
2018-Feb-19 02:56N 28°29' W 016°14'0 0.0
2018-Feb-19 02:29N 28°29' W 016°14'0 0.0
2018-Feb-19 01:56N 28°29' W 016°14'0 0.0
2018-Feb-19 01:29N 28°29' W 016°14'0 0.0
2018-Feb-19 00:59N 28°29' W 016°14'0 0.0
2018-Feb-19 00:26N 28°29' W 016°14'0 0.0
2018-Feb-18 23:56N 28°29' W 016°14'0 0.0
2018-Feb-18 23:26N 28°29' W 016°14'0 0.0
2018-Feb-18 22:59N 28°29' W 016°14'0 0.0
2018-Feb-18 22:26N 28°29' W 016°14'0 0.0
2018-Feb-18 21:59N 28°29' W 016°14'0 0.0
2018-Feb-18 21:26N 28°29' W 016°14'0 0.0
2018-Feb-18 20:59N 28°29' W 016°14'0 0.0
2018-Feb-18 20:29N 28°29' W 016°14'0 0.0
2018-Feb-18 19:59N 28°29' W 016°14'0 0.2
2018-Feb-18 19:30N 28°29' W 016°14'2 3.6
2018-Feb-18 18:59N 28°29' W 016°12'0 0.0
2018-Feb-18 18:29N 28°29' W 016°12'0 0.1
2018-Feb-18 17:59N 28°29' W 016°12'0 0.0
2018-Feb-18 17:29N 28°29' W 016°12'0 0.0
2018-Feb-18 16:59N 28°29' W 016°12'0 0.0
2018-Feb-18 16:29N 28°29' W 016°12'0 0.0
2018-Feb-18 15:59N 28°29' W 016°12'0 0.0
2018-Feb-18 15:29N 28°29' W 016°12'0 0.1
2018-Feb-18 14:59N 28°29' W 016°12'0 0.0
2018-Feb-18 14:29N 28°29' W 016°12'0 0.0
2018-Feb-18 13:59N 28°29' W 016°12'0 0.1
2018-Feb-18 13:29N 28°29' W 016°12'0 0.0
2018-Feb-18 12:59N 28°29' W 016°12'0 0.0
2018-Feb-18 12:29N 28°29' W 016°12'0 0.0
2018-Feb-18 11:59N 28°29' W 016°12'0 0.0
2018-Feb-18 11:29N 28°29' W 016°12'0 0.0
2018-Feb-18 10:59N 28°29' W 016°12'0 0.0
2018-Feb-18 10:26N 28°29' W 016°12'0 0.0
2018-Feb-18 09:59N 28°29' W 016°12'0 0.1
2018-Feb-18 09:29N 28°29' W 016°12'2 3.7
2018-Feb-18 09:01N 28°29' W 016°14'0 0.4
2018-Feb-18 08:30N 28°29' W 016°14'0 0.0
2018-Feb-18 08:00N 28°29' W 016°14'0 0.0
2018-Feb-18 07:30N 28°29' W 016°14'0 0.0
2018-Feb-18 07:00N 28°29' W 016°14'0 0.0
2018-Feb-18 06:30N 28°29' W 016°14'0 0.0
2018-Feb-18 06:00N 28°29' W 016°14'0 0.0
2018-Feb-18 05:30N 28°29' W 016°14'0 0.0
2018-Feb-18 05:00N 28°29' W 016°14'0 0.0
2018-Feb-18 04:30N 28°29' W 016°14'0 0.0
2018-Feb-18 04:00N 28°29' W 016°14'0 0.0
2018-Feb-18 03:30N 28°29' W 016°14'0 0.0
2018-Feb-18 03:00N 28°29' W 016°14'0 0.0
2018-Feb-18 02:30N 28°29' W 016°14'0 0.0
2018-Feb-18 02:00N 28°29' W 016°14'0 0.0
2018-Feb-18 01:30N 28°29' W 016°14'0 0.0
2018-Feb-18 01:00N 28°29' W 016°14'0 0.0
2018-Feb-18 00:30N 28°29' W 016°14'0 0.0
2018-Feb-18 00:00N 28°29' W 016°14'0 0.0
2018-Feb-17 23:30N 28°29' W 016°14'0 0.0
2018-Feb-17 23:00N 28°29' W 016°14'0 0.0
2018-Feb-17 22:30N 28°29' W 016°14'0 0.0
2018-Feb-17 22:00N 28°29' W 016°14'0 0.0
2018-Feb-17 21:30N 28°29' W 016°14'0 0.0
2018-Feb-17 21:00N 28°29' W 016°14'0 0.0
2018-Feb-17 20:30N 28°29' W 016°14'0 0.0
2018-Feb-17 20:00N 28°29' W 016°14'0 0.0
2018-Feb-17 19:30N 28°29' W 016°14'0 0.0
2018-Feb-17 19:00N 28°29' W 016°14'0 0.3
2018-Feb-17 18:30N 28°29' W 016°14'1 1.7
2018-Feb-17 18:00N 28°28' W 016°14'0 0.0
2018-Feb-17 17:30N 28°28' W 016°14'0 0.0
2018-Feb-17 17:00N 28°28' W 016°14'0 0.0
2018-Feb-17 16:30N 28°28' W 016°14'0 0.0
2018-Feb-17 16:00N 28°28' W 016°14'0 0.0
2018-Feb-17 15:30N 28°28' W 016°14'0 0.0
2018-Feb-17 15:00N 28°28' W 016°14'0 0.0
2018-Feb-17 14:30N 28°28' W 016°14'0 0.0
2018-Feb-17 14:00N 28°28' W 016°14'0 0.0
2018-Feb-17 13:30N 28°28' W 016°15'0 0.2
2018-Feb-17 13:00N 28°28' W 016°14'0 0.1
2018-Feb-17 12:30N 28°28' W 016°14'0 0.0
2018-Feb-17 12:00N 28°28' W 016°14'0 0.0
2018-Feb-17 11:30N 28°28' W 016°14'0 0.0
2018-Feb-17 11:00N 28°28' W 016°14'0 0.0
2018-Feb-17 10:30N 28°28' W 016°14'0 0.0
2018-Feb-17 10:00N 28°28' W 016°14'0 0.0
2018-Feb-17 09:30N 28°28' W 016°14'0 0.0
2018-Feb-17 09:00N 28°28' W 016°14'0 0.0
2018-Feb-17 08:30N 28°28' W 016°14'0 0.3
2018-Feb-17 08:00N 28°29' W 016°14'0 0.1
2018-Feb-17 07:30N 28°29' W 016°14'0 0.0
2018-Feb-17 07:00N 28°29' W 016°14'0 0.0
2018-Feb-17 06:30N 28°29' W 016°14'0 0.0
2018-Feb-17 06:00N 28°29' W 016°14'0 0.0
2018-Feb-17 05:30N 28°29' W 016°14'0 0.0
2018-Feb-17 05:00N 28°29' W 016°14'0 0.0
2018-Feb-17 04:30N 28°29' W 016°14'0 0.0
2018-Feb-17 04:00N 28°29' W 016°14'0 0.0
2018-Feb-17 03:30N 28°29' W 016°14'0 0.0
2018-Feb-17 03:00N 28°29' W 016°14'0 0.0
2018-Feb-17 02:30N 28°29' W 016°14'0 0.0
2018-Feb-17 02:00N 28°29' W 016°14'0 0.0
2018-Feb-17 01:30N 28°29' W 016°14'0 0.0
2018-Feb-17 01:00N 28°29' W 016°14'0 0.0
2018-Feb-17 00:30N 28°29' W 016°14'0 0.0
2018-Feb-17 00:00N 28°29' W 016°14'0 0.0
2018-Feb-16 23:30N 28°29' W 016°14'0 0.0
2018-Feb-16 23:00N 28°29' W 016°14'0 0.0
2018-Feb-16 22:30N 28°29' W 016°14'0 0.0
2018-Feb-16 22:00N 28°29' W 016°14'0 0.0
2018-Feb-16 21:30N 28°29' W 016°14'0 0.0
2018-Feb-16 21:00N 28°29' W 016°14'0 0.0
2018-Feb-16 20:30N 28°29' W 016°14'0 0.0
2018-Feb-16 20:00N 28°29' W 016°14'0 0.0
2018-Feb-16 19:29N 28°29' W 016°14'0 1.0
2018-Feb-16 19:00N 28°29' W 016°14'0 0.4
2018-Feb-16 18:28N 28°29' W 016°14'0 0.0
2018-Feb-16 17:58N 28°29' W 016°14'0 0.0
2018-Feb-16 17:28N 28°29' W 016°14'0 0.0
2018-Feb-16 16:58N 28°29' W 016°14'0 0.0
2018-Feb-16 16:25N 28°29' W 016°14'0 0.0
2018-Feb-16 15:58N 28°29' W 016°14'1 2.5
2018-Feb-16 15:28N 28°28' W 016°15'0 0.0
2018-Feb-16 14:58N 28°28' W 016°15'0 0.0
2018-Feb-16 14:28N 28°28' W 016°15'0 0.0
2018-Feb-16 13:58N 28°28' W 016°15'0 0.0
2018-Feb-16 13:28N 28°28' W 016°15'0 0.0
2018-Feb-16 12:58N 28°28' W 016°15'0 0.0
2018-Feb-16 12:28N 28°28' W 016°15'0 0.0
2018-Feb-16 11:58N 28°28' W 016°15'0 0.0
2018-Feb-16 11:28N 28°28' W 016°15'0 0.0
2018-Feb-16 10:58N 28°28' W 016°15'0 0.7
2018-Feb-16 10:30N 28°28' W 016°15'1 1.8
2018-Feb-16 09:59N 28°29' W 016°14'0 0.0
2018-Feb-16 09:29N 28°29' W 016°14'0 0.0
2018-Feb-16 08:59N 28°29' W 016°14'0 0.0
2018-Feb-16 08:29N 28°29' W 016°14'0 0.0
2018-Feb-16 07:59N 28°29' W 016°14'0 0.0
2018-Feb-16 07:29N 28°29' W 016°14'0 0.0
2018-Feb-16 06:59N 28°29' W 016°14'0 0.0
2018-Feb-16 06:29N 28°29' W 016°14'0 0.0
2018-Feb-16 05:59N 28°29' W 016°14'0 0.0
2018-Feb-16 05:26N 28°29' W 016°14'0 0.0
2018-Feb-16 04:53N 28°29' W 016°14'0 0.0
2018-Feb-16 04:29N 28°29' W 016°14'0 0.0
2018-Feb-16 03:56N 28°29' W 016°14'1 2.8
2018-Feb-16 03:29N 28°28' W 016°15'0 0.0
2018-Feb-16 02:59N 28°28' W 016°15'0 0.0
2018-Feb-16 02:29N 28°28' W 016°15'0 0.0
2018-Feb-16 01:59N 28°28' W 016°15'0 0.0
2018-Feb-16 01:29N 28°28' W 016°15'0 0.0
2018-Feb-16 00:56N 28°28' W 016°15'0 0.0
2018-Feb-16 00:29N 28°28' W 016°15'0 0.0
2018-Feb-15 23:56N 28°28' W 016°15'1 1.7
2018-Feb-15 23:30N 28°29' W 016°14'1 2.2
2018-Feb-15 23:00N 28°29' W 016°13'0 0.0
2018-Feb-15 22:30N 28°29' W 016°13'0 0.0
2018-Feb-15 22:00N 28°29' W 016°13'0 0.0
2018-Feb-15 21:30N 28°29' W 016°13'0 0.0
2018-Feb-15 21:00N 28°29' W 016°13'0 0.0
2018-Feb-15 20:30N 28°29' W 016°13'0 0.0
2018-Feb-15 20:00N 28°29' W 016°13'0 0.0
2018-Feb-15 19:30N 28°29' W 016°13'0 0.0
2018-Feb-15 19:00N 28°29' W 016°13'0 0.0
2018-Feb-15 18:30N 28°29' W 016°13'0 0.0
2018-Feb-15 18:00N 28°29' W 016°13'0 0.0
2018-Feb-15 17:30N 28°29' W 016°13'0 0.0
2018-Feb-15 17:00N 28°29' W 016°13'0 0.0
2018-Feb-15 16:30N 28°29' W 016°13'0 0.0
2018-Feb-15 16:00N 28°29' W 016°13'0 0.0
2018-Feb-15 15:30N 28°29' W 016°13'1 1.0
2018-Feb-15 14:58N 28°29' W 016°14'0 0.0
2018-Feb-15 14:28N 28°29' W 016°14'0 0.0
2018-Feb-15 13:58N 28°29' W 016°14'0 0.0
2018-Feb-15 13:28N 28°29' W 016°14'0 0.0
2018-Feb-15 12:58N 28°29' W 016°14'0 0.0
2018-Feb-15 12:31N 28°29' W 016°14'0 0.0
2018-Feb-15 12:01N 28°29' W 016°14'0 0.0
2018-Feb-15 11:30N 28°29' W 016°14'0 0.0
2018-Feb-15 11:00N 28°29' W 016°14'0 0.0
2018-Feb-15 10:30N 28°29' W 016°14'0 0.0
2018-Feb-15 10:00N 28°29' W 016°14'0 0.0
2018-Feb-15 09:30N 28°29' W 016°14'0 0.0
2018-Feb-15 09:00N 28°29' W 016°14'0 0.0
2018-Feb-15 08:30N 28°29' W 016°14'0 0.0
2018-Feb-15 08:00N 28°29' W 016°14'0 0.0
2018-Feb-15 07:30N 28°29' W 016°14'0 0.0
2018-Feb-15 07:00N 28°29' W 016°14'0 0.0
2018-Feb-15 06:24N 28°29' W 016°14'0 0.0
2018-Feb-15 06:00N 28°29' W 016°14'0 0.0
2018-Feb-15 05:30N 28°29' W 016°14'0 0.0
2018-Feb-15 05:00N 28°29' W 016°14'0 0.0
2018-Feb-15 04:27N 28°29' W 016°14'0 0.0
2018-Feb-15 04:00N 28°29' W 016°14'0 0.0
2018-Feb-15 03:30N 28°29' W 016°14'0 0.0
2018-Feb-15 03:00N 28°29' W 016°14'0 0.0
2018-Feb-15 02:30N 28°29' W 016°14'0 0.0
2018-Feb-15 02:00N 28°29' W 016°14'0 0.0
2018-Feb-15 01:30N 28°29' W 016°14'0 0.0
2018-Feb-15 01:00N 28°29' W 016°14'0 0.0
2018-Feb-15 00:30N 28°29' W 016°14'0 0.0
2018-Feb-15 00:00N 28°29' W 016°14'0 0.0
2018-Feb-14 23:30N 28°29' W 016°14'0 0.0
2018-Feb-14 23:00N 28°29' W 016°14'0 0.0
2018-Feb-14 22:30N 28°29' W 016°14'0 0.0
2018-Feb-14 22:00N 28°29' W 016°14'0 0.0
2018-Feb-14 21:30N 28°29' W 016°14'0 0.0
2018-Feb-14 21:00N 28°29' W 016°14'1 1.3
2018-Feb-14 20:29N 28°29' W 016°13'0 0.2
2018-Feb-14 19:59N 28°29' W 016°13'0 0.0
2018-Feb-14 19:29N 28°29' W 016°13'0 0.0
2018-Feb-14 18:59N 28°29' W 016°13'0 0.0
2018-Feb-14 18:29N 28°29' W 016°13'0 0.0
2018-Feb-14 17:59N 28°29' W 016°13'0 0.0
2018-Feb-14 17:29N 28°29' W 016°13'1 1.3
2018-Feb-14 16:59N 28°29' W 016°14'0 0.0
2018-Feb-14 16:29N 28°29' W 016°14'0 0.0
2018-Feb-14 15:59N 28°29' W 016°14'0 0.0
2018-Feb-14 15:29N 28°29' W 016°14'0 0.0
2018-Feb-14 14:59N 28°29' W 016°14'0 0.0
2018-Feb-14 14:29N 28°29' W 016°14'0 0.0
2018-Feb-14 13:59N 28°29' W 016°14'0 0.0
2018-Feb-14 13:29N 28°29' W 016°14'0 0.1
2018-Feb-14 12:59N 28°29' W 016°14'0 0.2
2018-Feb-14 12:29N 28°29' W 016°14'0 0.0
2018-Feb-14 11:59N 28°29' W 016°14'0 0.0
2018-Feb-14 11:29N 28°29' W 016°14'0 0.0
2018-Feb-14 10:59N 28°29' W 016°14'0 0.0
2018-Feb-14 10:29N 28°29' W 016°14'0 0.0
2018-Feb-14 09:59N 28°29' W 016°14'0 0.0
2018-Feb-14 09:29N 28°29' W 016°14'0 0.9
2018-Feb-14 08:59N 28°29' W 016°13'0 0.0
2018-Feb-14 08:29N 28°29' W 016°13'0 0.0
2018-Feb-14 07:59N 28°29' W 016°13'0 0.0
2018-Feb-14 07:29N 28°29' W 016°13'0 0.0
2018-Feb-14 06:59N 28°29' W 016°13'0 0.0
2018-Feb-14 06:29N 28°29' W 016°13'0 0.0
2018-Feb-14 05:59N 28°29' W 016°13'0 0.0
2018-Feb-14 05:29N 28°29' W 016°13'0 0.0
2018-Feb-14 04:59N 28°29' W 016°13'0 0.0
2018-Feb-14 04:29N 28°29' W 016°13'0 0.0
2018-Feb-14 03:59N 28°29' W 016°13'0 0.0
2018-Feb-14 03:29N 28°29' W 016°13'0 0.0
2018-Feb-14 02:53N 28°29' W 016°13'0 0.0
2018-Feb-14 02:29N 28°29' W 016°13'0 0.2
2018-Feb-14 01:53N 28°29' W 016°13'0 0.0
2018-Feb-14 01:29N 28°29' W 016°13'0 0.0
2018-Feb-14 00:59N 28°29' W 016°13'0 0.0
2018-Feb-14 00:29N 28°29' W 016°13'0 0.0
2018-Feb-13 23:59N 28°29' W 016°13'0 0.0
2018-Feb-13 23:29N 28°29' W 016°13'0 0.0
2018-Feb-13 22:59N 28°29' W 016°13'0 0.0
2018-Feb-13 22:29N 28°29' W 016°13'0 0.0
2018-Feb-13 21:59N 28°29' W 016°13'0 0.3
2018-Feb-13 21:29N 28°29' W 016°13'0 0.0
2018-Feb-13 20:59N 28°29' W 016°13'0 0.0
2018-Feb-13 20:29N 28°29' W 016°13'0 0.0
2018-Feb-13 19:59N 28°29' W 016°13'0 0.0
2018-Feb-13 19:29N 28°29' W 016°13'0 0.0
2018-Feb-13 18:59N 28°29' W 016°13'0 0.0
2018-Feb-13 18:29N 28°29' W 016°13'0 0.0
2018-Feb-13 17:59N 28°29' W 016°13'0 0.0
2018-Feb-13 17:29N 28°29' W 016°13'0 0.0
2018-Feb-13 16:59N 28°29' W 016°13'1 1.1
2018-Feb-13 16:30N 28°29' W 016°14'0 0.0
2018-Feb-13 16:00N 28°29' W 016°14'0 0.0
2018-Feb-13 15:30N 28°29' W 016°14'0 0.0
2018-Feb-13 14:57N 28°29' W 016°14'0 0.4
2018-Feb-13 14:29N 28°29' W 016°14'0 0.0
2018-Feb-13 13:59N 28°29' W 016°14'0 0.0
2018-Feb-13 13:29N 28°29' W 016°14'0 0.0
2018-Feb-13 12:59N 28°29' W 016°14'0 0.0
2018-Feb-13 12:29N 28°29' W 016°14'0 0.0
2018-Feb-13 11:59N 28°29' W 016°14'0 0.1
2018-Feb-13 11:29N 28°29' W 016°14'0 0.3
2018-Feb-13 10:59N 28°29' W 016°14'0 0.0
2018-Feb-13 10:29N 28°29' W 016°14'0 0.0
2018-Feb-13 09:59N 28°29' W 016°14'0 0.0
2018-Feb-13 09:29N 28°29' W 016°14'0 0.0
2018-Feb-13 08:59N 28°29' W 016°14'0 0.0
2018-Feb-13 08:29N 28°29' W 016°14'0 0.0
2018-Feb-13 07:59N 28°29' W 016°14'0 0.0
2018-Feb-13 07:29N 28°29' W 016°14'0 0.6
2018-Feb-13 07:00N 28°29' W 016°14'1 2.3
2018-Feb-13 06:25N 28°29' W 016°12'0 0.6
2018-Feb-13 05:58N 28°29' W 016°12'0 0.0
2018-Feb-13 05:25N 28°29' W 016°12'0 0.0
2018-Feb-13 04:58N 28°29' W 016°12'0 0.0
2018-Feb-13 04:25N 28°29' W 016°12'0 0.0
2018-Feb-13 03:58N 28°29' W 016°12'0 0.0
2018-Feb-13 03:25N 28°29' W 016°12'0 0.0
2018-Feb-13 02:58N 28°29' W 016°12'0 0.0
2018-Feb-13 02:28N 28°29' W 016°12'0 0.0
2018-Feb-13 01:58N 28°29' W 016°12'0 0.0
2018-Feb-13 01:28N 28°29' W 016°12'0 0.0
2018-Feb-13 00:55N 28°29' W 016°12'0 0.0
2018-Feb-13 00:28N 28°29' W 016°12'0 0.0
2018-Feb-12 23:58N 28°29' W 016°12'0 0.0
2018-Feb-12 23:28N 28°29' W 016°12'0 0.0
2018-Feb-12 22:58N 28°29' W 016°12'0 0.0
2018-Feb-12 22:28N 28°29' W 016°12'0 0.1
2018-Feb-12 21:58N 28°29' W 016°12'0 0.1
2018-Feb-12 21:28N 28°29' W 016°12'1 1.4
2018-Feb-12 21:00N 28°29' W 016°12'1 1.4
2018-Feb-12 20:30N 28°29' W 016°13'0 0.0
2018-Feb-12 20:00N 28°29' W 016°13'0 0.0
2018-Feb-12 19:30N 28°29' W 016°13'0 0.0
2018-Feb-12 19:00N 28°29' W 016°13'0 0.0
2018-Feb-12 18:30N 28°29' W 016°13'0 0.0
2018-Feb-12 18:00N 28°29' W 016°13'0 0.0
2018-Feb-12 17:30N 28°29' W 016°13'0 0.0
2018-Feb-12 17:00N 28°29' W 016°13'0 0.0
2018-Feb-12 16:30N 28°29' W 016°13'0 0.0
2018-Feb-12 16:00N 28°29' W 016°13'0 0.0
2018-Feb-12 15:18N 28°29' W 016°13'0 0.0
2018-Feb-12 15:00N 28°29' W 016°13'0 0.0
2018-Feb-12 14:30N 28°29' W 016°13'0 0.0
2018-Feb-12 14:00N 28°29' W 016°13'0 0.0
2018-Feb-12 13:30N 28°29' W 016°13'0 1.0
2018-Feb-12 12:58N 28°29' W 016°14'0 0.0
2018-Feb-12 12:28N 28°29' W 016°14'0 0.0
2018-Feb-12 11:58N 28°29' W 016°14'0 0.0
2018-Feb-12 11:28N 28°29' W 016°14'0 0.0
2018-Feb-12 10:58N 28°29' W 016°14'0 0.0
2018-Feb-12 10:28N 28°29' W 016°14'0 1.0
2018-Feb-12 10:00N 28°29' W 016°14'1 1.6
2018-Feb-12 09:30N 28°28' W 016°15'0 0.0
2018-Feb-12 09:00N 28°28' W 016°15'0 0.0
2018-Feb-12 08:30N 28°28' W 016°15'0 0.0
2018-Feb-12 08:00N 28°28' W 016°15'0 0.0
2018-Feb-12 07:30N 28°28' W 016°15'0 0.0
2018-Feb-12 07:00N 28°28' W 016°15'0 0.0
2018-Feb-12 06:30N 28°28' W 016°15'0 0.0
2018-Feb-12 06:00N 28°28' W 016°15'0 0.0
2018-Feb-12 05:30N 28°28' W 016°15'0 0.1
2018-Feb-12 05:00N 28°28' W 016°15'0 0.6
2018-Feb-12 04:30N 28°28' W 016°14'0 0.0
2018-Feb-12 04:00N 28°28' W 016°14'0 0.0
2018-Feb-12 03:30N 28°28' W 016°14'0 0.0
2018-Feb-12 03:00N 28°28' W 016°14'0 0.0
2018-Feb-12 02:30N 28°28' W 016°14'0 0.0
2018-Feb-12 02:00N 28°28' W 016°14'0 0.0
2018-Feb-12 01:30N 28°28' W 016°14'0 0.0
2018-Feb-12 01:00N 28°28' W 016°14'0 0.0
2018-Feb-12 00:30N 28°28' W 016°14'0 0.0
2018-Feb-12 00:00N 28°28' W 016°14'0 0.0
2018-Feb-11 23:30N 28°28' W 016°14'0 0.0
2018-Feb-11 23:00N 28°28' W 016°14'0 0.0
2018-Feb-11 22:30N 28°28' W 016°14'0 0.0
2018-Feb-11 22:00N 28°28' W 016°14'0 0.0
2018-Feb-11 21:30N 28°28' W 016°14'0 0.0
2018-Feb-11 21:00N 28°28' W 016°14'0 0.0
2018-Feb-11 20:30N 28°28' W 016°14'0 0.0
2018-Feb-11 20:00N 28°28' W 016°14'0 0.0
2018-Feb-11 19:30N 28°28' W 016°14'0 0.0
2018-Feb-11 19:00N 28°28' W 016°14'1 3.0
2018-Feb-11 18:31N 28°29' W 016°13'0 0.8
2018-Feb-11 17:59N 28°29' W 016°12'0 0.0
2018-Feb-11 17:29N 28°29' W 016°12'0 0.1
2018-Feb-11 16:59N 28°29' W 016°12'0 0.1
2018-Feb-11 16:29N 28°29' W 016°12'0 0.0
2018-Feb-11 15:59N 28°29' W 016°12'0 0.1
2018-Feb-11 15:29N 28°29' W 016°12'0 0.0
2018-Feb-11 14:59N 28°29' W 016°12'0 0.1
2018-Feb-11 14:29N 28°29' W 016°13'1 2.1
2018-Feb-11 14:00N 28°29' W 016°14'0 0.1
2018-Feb-11 13:30N 28°29' W 016°14'0 0.0
2018-Feb-11 13:00N 28°29' W 016°14'  

Dump ship's entire track history